createdAt,value
2023-01-09T00:01:27.682Z,13.67
2023-01-09T00:03:56.273Z,13.70
2023-01-09T00:06:24.423Z,13.74
2023-01-09T00:08:52.625Z,13.71
2023-01-09T00:11:20.711Z,13.72
2023-01-09T00:13:49.035Z,13.71
2023-01-09T00:16:17.860Z,13.75
2023-01-09T00:18:47.612Z,13.80
2023-01-09T00:21:16.328Z,13.81
2023-01-09T00:23:44.263Z,13.79
2023-01-09T00:26:14.916Z,13.74
2023-01-09T00:28:42.897Z,13.67
2023-01-09T00:31:11.860Z,13.62
2023-01-09T00:33:45.942Z,13.60
2023-01-09T00:36:15.854Z,13.53
2023-01-09T00:38:43.808Z,13.19
2023-01-09T00:41:17.982Z,12.69
2023-01-09T00:43:48.346Z,12.21
2023-01-09T00:46:18.523Z,11.89
2023-01-09T00:48:49.224Z,11.74
2023-01-09T00:51:20.955Z,11.65
2023-01-09T00:53:51.048Z,11.68
2023-01-09T00:56:21.866Z,11.67
2023-01-09T00:58:50.573Z,11.64
2023-01-09T01:01:18.652Z,11.58
2023-01-09T01:03:46.941Z,11.59
2023-01-09T01:06:32.187Z,11.57
2023-01-09T01:09:01.547Z,11.58
2023-01-09T01:11:29.557Z,11.69
2023-01-09T01:13:57.463Z,11.72
2023-01-09T01:16:25.465Z,11.82
2023-01-09T01:18:53.753Z,11.89
2023-01-09T01:21:21.668Z,11.91
2023-01-09T01:23:49.765Z,11.98
2023-01-09T01:26:19.053Z,12.08
2023-01-09T01:28:46.976Z,12.17
2023-01-09T01:31:19.424Z,12.29
2023-01-09T01:33:47.804Z,12.43
2023-01-09T01:36:17.979Z,12.46
2023-01-09T01:38:47.656Z,12.54
2023-01-09T01:41:29.745Z,12.60
2023-01-09T01:44:01.360Z,12.66
2023-01-09T01:46:29.699Z,12.69
2023-01-09T01:49:02.678Z,12.74
2023-01-09T01:51:33.640Z,12.80
2023-01-09T01:54:08.127Z,12.81
2023-01-09T01:56:39.187Z,12.76
2023-01-09T01:59:13.039Z,12.72
2023-01-09T02:01:44.979Z,12.67
2023-01-09T02:04:14.078Z,12.65
2023-01-09T02:06:43.758Z,12.61
2023-01-09T02:09:15.404Z,12.47
2023-01-09T02:11:46.900Z,12.40
2023-01-09T02:14:17.531Z,12.34
2023-01-09T02:16:53.792Z,12.31
2023-01-09T02:19:49.044Z,12.43
2023-01-09T02:22:30.684Z,12.38
2023-01-09T02:25:27.791Z,12.33
2023-01-09T02:28:30.890Z,12.26
2023-01-09T02:31:07.761Z,12.28
2023-01-09T02:33:45.772Z,12.37
2023-01-09T02:36:23.790Z,12.37
2023-01-09T02:39:00.922Z,12.22
2023-01-09T02:41:37.427Z,11.81
2023-01-09T02:44:17.842Z,11.39
2023-01-09T02:46:47.598Z,11.11
2023-01-09T02:49:18.619Z,10.94
2023-01-09T02:51:53.477Z,10.95
2023-01-09T02:54:29.761Z,11.02
2023-01-09T02:57:23.248Z,11.17
2023-01-09T03:00:09.843Z,11.42
2023-01-09T03:02:50.318Z,11.63
2023-01-09T03:05:24.763Z,11.77
2023-01-09T03:08:00.723Z,11.95
2023-01-09T03:10:39.875Z,12.09
2023-01-09T03:13:13.128Z,12.23
2023-01-09T03:15:45.974Z,12.34
2023-01-09T03:18:17.255Z,12.25
2023-01-09T03:20:45.703Z,12.16
2023-01-09T03:23:13.583Z,12.08
2023-01-09T03:25:41.540Z,12.14
2023-01-09T03:28:19.544Z,12.25
2023-01-09T03:30:47.481Z,12.33
2023-01-09T03:33:16.991Z,12.37
2023-01-09T03:35:45.056Z,12.47
2023-01-09T03:38:13.038Z,12.55
2023-01-09T03:40:43.322Z,12.73
2023-01-09T03:43:11.328Z,12.78
2023-01-09T03:45:39.299Z,12.91
2023-01-09T03:48:07.743Z,12.99
2023-01-09T03:50:37.215Z,13.03
2023-01-09T03:53:05.180Z,13.04
2023-01-09T03:55:33.134Z,13.01
2023-01-09T03:58:01.048Z,12.68
2023-01-09T04:00:29.040Z,12.41
2023-01-09T04:02:56.919Z,12.21
2023-01-09T04:05:24.840Z,12.01
2023-01-09T04:07:54.529Z,11.78
2023-01-09T04:10:22.435Z,11.58
2023-01-09T04:12:50.457Z,11.50
2023-01-09T04:15:18.935Z,11.56
2023-01-09T04:17:46.941Z,11.60
2023-01-09T04:20:15.131Z,11.72
2023-01-09T04:22:43.159Z,11.79
2023-01-09T04:25:12.763Z,11.91
2023-01-09T04:27:40.845Z,11.99
2023-01-09T04:30:10.188Z,12.01
2023-01-09T04:32:38.150Z,12.11
2023-01-09T04:35:07.221Z,12.16
2023-01-09T04:37:36.269Z,12.22
2023-01-09T04:40:06.117Z,12.28
2023-01-09T04:42:35.938Z,12.41
2023-01-09T04:45:04.078Z,12.48
2023-01-09T04:47:32.716Z,12.57
2023-01-09T04:50:00.763Z,12.69
2023-01-09T04:52:29.044Z,12.83
2023-01-09T04:54:57.127Z,12.89
2023-01-09T04:57:25.070Z,12.94
2023-01-09T04:59:54.492Z,13.02
2023-01-09T05:02:22.355Z,12.88
2023-01-09T05:04:50.253Z,12.68
2023-01-09T05:07:18.217Z,12.52
2023-01-09T05:09:46.456Z,12.46
2023-01-09T05:12:14.415Z,12.42
2023-01-09T05:14:42.380Z,12.44
2023-01-09T05:17:11.780Z,12.45
2023-01-09T05:19:40.124Z,12.48
2023-01-09T05:22:08.085Z,12.50
2023-01-09T05:24:36.017Z,12.50
2023-01-09T05:27:03.975Z,12.52
2023-01-09T05:29:31.989Z,12.63
2023-01-09T05:32:00.340Z,12.67
2023-01-09T05:34:29.853Z,12.70
2023-01-09T05:36:57.879Z,12.79
2023-01-09T05:39:26.017Z,12.82
2023-01-09T05:41:53.864Z,12.87
2023-01-09T05:44:22.344Z,12.90
2023-01-09T05:46:50.791Z,12.98
2023-01-09T05:49:18.773Z,12.91
2023-01-09T05:51:48.090Z,12.96
2023-01-09T05:54:16.054Z,12.87
2023-01-09T05:56:43.923Z,12.71
2023-01-09T05:59:11.850Z,12.57
2023-01-09T06:01:39.773Z,12.50
2023-01-09T06:04:07.800Z,12.47
2023-01-09T06:06:35.817Z,12.49
2023-01-09T06:09:05.275Z,12.47
2023-01-09T06:11:34.454Z,12.57
2023-01-09T06:14:02.561Z,12.62
2023-01-09T06:16:31.165Z,12.68
2023-01-09T06:18:59.184Z,12.76
2023-01-09T06:21:29.483Z,12.84
2023-01-09T06:23:57.476Z,12.86
2023-01-09T06:26:28.100Z,12.91
2023-01-09T06:28:56.776Z,12.91
2023-01-09T06:31:25.799Z,12.84
2023-01-09T06:33:54.055Z,12.91
2023-01-09T06:36:22.639Z,12.91
2023-01-09T06:38:50.811Z,12.94
2023-01-09T06:41:19.191Z,13.01
2023-01-09T06:43:48.546Z,13.02
2023-01-09T06:46:16.576Z,12.98
2023-01-09T06:48:44.769Z,13.01
2023-01-09T06:51:12.679Z,13.03
2023-01-09T06:53:40.640Z,13.05
2023-01-09T06:56:08.780Z,13.08
2023-01-09T06:58:36.766Z,13.07
2023-01-09T07:01:06.495Z,13.08
2023-01-09T07:03:34.616Z,13.04
2023-01-09T07:06:02.581Z,13.08
2023-01-09T07:08:31.142Z,13.04
2023-01-09T07:10:59.126Z,13.03
2023-01-09T07:13:27.108Z,12.97
2023-01-09T07:15:55.049Z,13.00
2023-01-09T07:18:24.604Z,12.93
2023-01-09T07:20:52.628Z,12.97
2023-01-09T07:23:20.528Z,12.95
2023-01-09T07:25:48.635Z,12.92
2023-01-09T07:28:16.679Z,12.96
2023-01-09T07:30:44.657Z,12.97
2023-01-09T07:33:12.577Z,13.01
2023-01-09T07:35:42.080Z,13.03
2023-01-09T07:38:10.153Z,13.07
2023-01-09T07:40:38.439Z,13.11
2023-01-09T07:43:06.538Z,13.13
2023-01-09T07:45:34.474Z,13.11
2023-01-09T07:48:02.383Z,13.09
2023-01-09T07:50:30.358Z,13.11
2023-01-09T07:52:59.794Z,13.07
2023-01-09T07:55:27.892Z,13.15
2023-01-09T07:57:55.800Z,13.15
2023-01-09T08:00:23.903Z,13.18
2023-01-09T08:02:55.243Z,13.14
2023-01-09T08:05:23.338Z,13.19
2023-01-09T08:07:52.733Z,13.15
2023-01-09T08:10:22.266Z,13.09
2023-01-09T08:12:50.899Z,13.08
2023-01-09T08:15:18.983Z,13.11
2023-01-09T08:17:47.738Z,13.12
2023-01-09T08:20:17.535Z,13.13
2023-01-09T08:22:49.792Z,13.15
2023-01-09T08:25:18.840Z,13.17
2023-01-09T08:27:48.337Z,13.20
2023-01-09T08:30:16.838Z,13.20
2023-01-09T08:32:44.913Z,13.25
2023-01-09T08:35:12.891Z,13.22
2023-01-09T08:37:40.892Z,13.19
2023-01-09T08:40:10.483Z,13.17
2023-01-09T08:42:55.823Z,13.17
2023-01-09T08:45:42.880Z,13.08
2023-01-09T08:48:11.616Z,13.03
2023-01-09T08:50:39.528Z,13.11
2023-01-09T08:53:07.464Z,13.12
2023-01-09T08:55:35.455Z,13.11
2023-01-09T08:58:03.516Z,13.20
2023-01-09T09:00:33.057Z,13.24
2023-01-09T09:03:02.342Z,13.30
2023-01-09T09:05:32.556Z,13.32
2023-01-09T09:08:00.749Z,13.32
2023-01-09T09:10:30.116Z,13.41
2023-01-09T09:12:59.964Z,13.41
2023-01-09T09:15:29.389Z,13.40
2023-01-09T09:18:00.732Z,13.35
2023-01-09T09:20:31.440Z,13.35
2023-01-09T09:22:59.717Z,13.25
2023-01-09T09:28:11.164Z,13.42
2023-01-09T09:30:40.210Z,13.35
2023-01-09T09:33:10.049Z,13.25
2023-01-09T09:35:38.241Z,13.18
2023-01-09T09:38:06.579Z,13.19
2023-01-09T09:41:31.214Z,13.11
2023-01-09T09:44:33.225Z,13.17
2023-01-09T09:47:13.303Z,13.09
2023-01-09T09:50:03.643Z,13.01
2023-01-09T09:52:43.821Z,12.99
2023-01-09T09:55:20.058Z,12.91
2023-01-09T09:57:49.641Z,12.82
2023-01-09T10:00:21.663Z,12.76
2023-01-09T10:02:54.409Z,12.78
2023-01-09T10:05:30.644Z,12.84
2023-01-09T10:08:15.532Z,12.87
2023-01-09T10:10:50.836Z,12.90
2023-01-09T10:13:39.082Z,12.99
2023-01-09T10:16:17.847Z,12.98
2023-01-09T10:19:00.587Z,13.02
2023-01-09T10:21:37.920Z,13.09
2023-01-09T10:24:30.841Z,13.05
2023-01-09T10:27:03.413Z,13.07
2023-01-09T10:29:46.469Z,13.02
2023-01-09T10:32:31.762Z,13.05
2023-01-09T10:35:15.785Z,13.16
2023-01-09T10:37:47.782Z,13.27
2023-01-09T10:40:21.475Z,13.31
2023-01-09T10:42:55.201Z,13.30
2023-01-09T10:45:26.985Z,13.31
2023-01-09T10:48:01.973Z,13.28
2023-01-09T10:50:35.585Z,13.29
2023-01-09T10:53:17.793Z,13.29
2023-01-09T10:55:48.376Z,13.29
2023-01-09T10:58:18.536Z,13.30
2023-01-09T11:00:47.835Z,13.29
2023-01-09T11:03:17.640Z,13.30
2023-01-09T11:05:51.801Z,13.40
2023-01-09T11:08:28.699Z,13.53
2023-01-09T11:10:58.430Z,13.63
2023-01-09T11:13:29.577Z,13.69
2023-01-09T11:16:05.763Z,13.70
2023-01-09T11:18:35.250Z,13.73
2023-01-09T11:21:16.407Z,13.70
2023-01-09T11:23:46.064Z,13.58
2023-01-09T11:26:24.708Z,13.55
2023-01-09T11:29:12.053Z,13.49
2023-01-09T11:31:41.998Z,13.45
2023-01-09T11:34:17.854Z,13.48
2023-01-09T11:36:46.373Z,13.55
2023-01-09T11:39:25.024Z,13.71
2023-01-09T11:41:57.254Z,13.78
2023-01-09T11:44:26.111Z,13.84
2023-01-09T11:46:54.348Z,13.82
2023-01-09T11:49:25.144Z,13.85
2023-01-09T11:52:16.217Z,13.88
2023-01-09T11:54:50.441Z,13.87
2023-01-09T11:57:19.005Z,13.83
2023-01-09T11:59:47.147Z,13.76
2023-01-09T12:02:46.282Z,13.68
2023-01-09T12:05:26.999Z,13.66
2023-01-09T12:08:20.098Z,13.67
2023-01-09T12:11:20.245Z,13.78
2023-01-09T12:14:00.883Z,13.94
2023-01-09T12:16:36.290Z,13.99
2023-01-09T12:19:19.529Z,14.09
2023-01-09T12:21:55.064Z,14.09
2023-01-09T12:24:45.570Z,14.07
2023-01-09T12:27:28.593Z,14.04
2023-01-09T12:30:17.036Z,13.98
2023-01-09T12:32:58.790Z,14.04
2023-01-09T12:35:35.249Z,14.02
2023-01-09T12:38:38.835Z,14.03
2023-01-09T12:41:26.239Z,13.97
2023-01-09T12:44:10.232Z,13.96
2023-01-09T12:46:47.599Z,13.98
2023-01-09T12:49:31.581Z,14.04
2023-01-09T12:52:07.189Z,14.14
2023-01-09T12:54:41.292Z,14.28
2023-01-09T12:57:24.627Z,14.27
2023-01-09T12:59:58.400Z,14.15
2023-01-09T13:02:32.673Z,14.14
2023-01-09T13:05:03.888Z,14.01
2023-01-09T13:07:38.719Z,13.96
2023-01-09T13:10:17.872Z,13.88
2023-01-09T13:12:48.285Z,13.96
2023-01-09T13:15:41.054Z,13.93
2023-01-09T13:18:13.807Z,13.88
2023-01-09T13:20:46.774Z,13.84
2023-01-09T13:23:23.880Z,13.80
2023-01-09T13:25:54.659Z,13.76
2023-01-09T13:28:28.225Z,13.75
2023-01-09T13:31:32.185Z,13.75
2023-01-09T13:34:04.598Z,13.79
2023-01-09T13:36:39.653Z,13.95
2023-01-09T13:39:08.372Z,14.11
2023-01-09T13:42:05.769Z,14.15
2023-01-09T13:44:36.599Z,14.20
2023-01-09T13:47:06.749Z,14.23
2023-01-09T13:50:03.299Z,14.24
2023-01-09T13:52:37.711Z,14.30
2023-01-09T13:55:31.894Z,14.31
2023-01-09T13:58:24.360Z,14.30
2023-01-09T14:00:56.151Z,14.37
2023-01-09T14:03:29.462Z,14.37
2023-01-09T14:06:21.680Z,14.09
2023-01-09T14:08:51.864Z,14.07
2023-01-09T14:11:22.840Z,14.10
2023-01-09T14:14:03.587Z,13.99
2023-01-09T14:16:32.984Z,13.94
2023-01-09T14:19:08.274Z,14.00
2023-01-09T14:21:48.529Z,13.94
2023-01-09T14:24:23.507Z,13.84
2023-01-09T14:26:57.315Z,13.87
2023-01-09T14:30:17.352Z,13.95
2023-01-09T14:32:46.625Z,13.91
2023-01-09T14:35:20.948Z,13.92
2023-01-09T14:38:01.042Z,13.88
2023-01-09T14:40:29.542Z,13.93
2023-01-09T14:43:05.958Z,13.99
2023-01-09T14:45:38.050Z,14.10
2023-01-09T14:48:11.620Z,14.11
2023-01-09T14:50:46.576Z,14.10
2023-01-09T14:53:17.917Z,14.16
2023-01-09T14:55:53.216Z,14.18
2023-01-09T14:58:24.133Z,14.16
2023-01-09T15:01:04.493Z,14.02
2023-01-09T15:03:38.456Z,13.96
2023-01-09T15:06:16.520Z,13.93
2023-01-09T15:08:46.547Z,13.90
2023-01-09T15:11:15.683Z,13.93
2023-01-09T15:13:48.640Z,13.85
2023-01-09T15:16:20.584Z,13.83
2023-01-09T15:18:51.373Z,13.81
2023-01-09T15:21:24.424Z,13.76
2023-01-09T15:23:52.471Z,13.81
2023-01-09T15:26:30.402Z,13.75
2023-01-09T15:29:03.425Z,13.72
2023-01-09T15:31:31.687Z,13.75
2023-01-09T15:34:01.696Z,13.75
2023-01-09T15:36:31.699Z,13.74
2023-01-09T15:39:00.737Z,13.75
2023-01-09T15:41:48.274Z,13.75
2023-01-09T15:44:20.112Z,13.67
2023-01-09T15:46:50.209Z,13.63
2023-01-09T15:49:19.923Z,13.60
2023-01-09T15:51:50.740Z,13.58
2023-01-09T15:54:22.066Z,13.62
2023-01-09T15:56:50.028Z,13.55
2023-01-09T15:59:27.292Z,13.55
2023-01-09T16:02:15.203Z,13.54
2023-01-09T16:04:43.539Z,13.52
2023-01-09T16:07:17.072Z,13.52
2023-01-09T16:09:47.579Z,13.47
2023-01-09T16:12:21.202Z,13.43
2023-01-09T16:15:08.566Z,13.44
2023-01-09T16:17:37.795Z,13.38
2023-01-09T16:20:15.715Z,13.45
2023-01-09T16:22:55.388Z,13.47
2023-01-09T16:25:29.652Z,13.49
2023-01-09T16:28:21.999Z,13.48
2023-01-09T16:30:55.337Z,13.50
2023-01-09T16:33:26.051Z,13.53
2023-01-09T16:35:54.680Z,13.48
2023-01-09T16:38:24.895Z,13.54
2023-01-09T16:41:20.834Z,13.51
2023-01-09T16:43:49.422Z,13.53
2023-01-09T16:46:19.689Z,13.50
2023-01-09T16:48:47.863Z,13.51
2023-01-09T16:51:18.155Z,13.53
2023-01-09T16:53:48.253Z,13.41
2023-01-09T16:56:19.969Z,13.46
2023-01-09T16:58:47.973Z,13.43
2023-01-09T17:01:16.414Z,13.40
2023-01-09T17:03:47.854Z,13.44
2023-01-09T17:06:27.992Z,13.44
2023-01-09T17:09:00.188Z,13.46
2023-01-09T17:11:31.611Z,13.44
2023-01-09T17:13:59.939Z,13.43
2023-01-09T17:16:29.060Z,13.40
2023-01-09T17:18:57.535Z,13.39
2023-01-09T17:21:28.909Z,13.36
2023-01-09T17:24:16.695Z,13.37
2023-01-09T17:27:05.317Z,13.31
2023-01-09T17:29:35.922Z,13.29
2023-01-09T17:32:04.682Z,13.31
2023-01-09T17:34:33.767Z,13.32
2023-01-09T17:37:04.299Z,13.34
2023-01-09T17:39:34.168Z,13.38
2023-01-09T17:42:02.101Z,13.34
2023-01-09T17:44:30.118Z,13.31
2023-01-09T17:47:00.575Z,13.31
2023-01-09T17:49:28.674Z,13.29
2023-01-09T17:51:56.690Z,13.24
2023-01-09T17:54:24.588Z,13.24
2023-01-09T17:56:54.436Z,13.21
2023-01-09T17:59:22.532Z,13.23
2023-01-09T18:01:50.563Z,13.22
2023-01-09T18:04:18.536Z,13.19
2023-01-09T18:06:48.358Z,13.20
2023-01-09T18:09:18.527Z,13.20
2023-01-09T18:11:48.337Z,13.28
2023-01-09T18:14:18.060Z,13.33
2023-01-09T18:16:46.215Z,13.35
2023-01-09T18:19:14.299Z,13.34
2023-01-09T18:21:42.196Z,13.41
2023-01-09T18:24:13.423Z,13.45
2023-01-09T18:26:41.304Z,13.46
2023-01-09T18:29:11.494Z,13.49
2023-01-09T18:31:40.907Z,13.45
2023-01-09T18:34:11.106Z,13.49
2023-01-09T18:36:39.412Z,13.46
2023-01-09T18:39:08.797Z,13.48
2023-01-09T18:41:36.854Z,13.50
2023-01-09T18:44:04.902Z,13.50
2023-01-09T18:46:33.123Z,13.52
2023-01-09T18:49:04.333Z,13.54
2023-01-09T18:51:33.450Z,13.56
2023-01-09T18:54:01.628Z,13.60
2023-01-09T18:56:29.801Z,13.61
2023-01-09T18:58:59.021Z,13.68
2023-01-09T19:01:30.190Z,13.60
2023-01-09T19:03:59.497Z,13.61
2023-01-09T19:06:31.927Z,13.67
2023-01-09T19:09:00.997Z,13.69
2023-01-09T19:11:33.236Z,13.75
2023-01-09T19:14:01.350Z,13.71
2023-01-09T19:16:29.327Z,13.72
2023-01-09T19:18:58.276Z,13.72
2023-01-09T19:21:29.749Z,13.64
2023-01-09T19:23:58.863Z,13.62
2023-01-09T19:26:28.896Z,13.67
2023-01-09T19:28:57.886Z,13.65
2023-01-09T19:31:28.305Z,13.60
2023-01-09T19:33:56.845Z,13.62
2023-01-09T19:36:24.999Z,13.61
2023-01-09T19:38:58.463Z,13.61
2023-01-09T19:41:26.629Z,13.57
2023-01-09T19:43:54.662Z,13.58
2023-01-09T19:46:26.490Z,13.53
2023-01-09T19:48:57.064Z,13.50
2023-01-09T19:51:25.578Z,13.50
2023-01-09T19:53:55.247Z,13.52
2023-01-09T19:56:29.668Z,13.48
2023-01-09T19:59:02.959Z,13.44
2023-01-09T20:01:36.051Z,13.47
2023-01-09T20:04:07.966Z,13.42
2023-01-09T20:06:39.274Z,13.43
2023-01-09T20:09:07.780Z,13.41
2023-01-09T20:11:37.283Z,13.38
2023-01-09T20:14:05.277Z,13.35
2023-01-09T20:16:33.423Z,13.33
2023-01-09T20:19:04.078Z,13.32
2023-01-09T20:21:36.043Z,13.35
2023-01-09T20:24:06.062Z,13.33
2023-01-09T20:26:36.774Z,13.34
2023-01-09T20:29:05.424Z,13.29
2023-01-09T20:31:33.452Z,13.29
2023-01-09T20:34:01.668Z,13.33
2023-01-09T20:36:30.678Z,13.35
2023-01-09T20:39:00.284Z,13.38
2023-01-09T20:41:30.751Z,13.41
2023-01-09T20:44:01.927Z,13.38
2023-01-09T20:46:34.103Z,13.43
2023-01-09T20:49:03.566Z,13.49
2023-01-09T20:51:32.179Z,13.53
2023-01-09T20:54:00.166Z,13.54
2023-01-09T20:56:29.656Z,13.65
2023-01-09T20:59:00.408Z,13.64
2023-01-09T21:01:29.157Z,13.58
2023-01-09T21:03:59.046Z,13.53
2023-01-09T21:06:28.662Z,13.48
2023-01-09T21:08:56.632Z,13.44
2023-01-09T21:11:24.830Z,13.45
2023-01-09T21:13:53.306Z,13.42
2023-01-09T21:16:24.759Z,13.38
2023-01-09T21:18:54.649Z,13.34
2023-01-09T21:21:24.226Z,13.31
2023-01-09T21:23:54.407Z,13.33
2023-01-09T21:26:26.164Z,13.34
2023-01-09T21:28:56.039Z,13.33
2023-01-09T21:31:28.895Z,13.34
2023-01-09T21:34:03.422Z,13.34
2023-01-09T21:36:31.850Z,13.38
2023-01-09T21:39:00.348Z,13.36
2023-01-09T21:41:45.798Z,13.38
2023-01-09T21:44:32.218Z,13.44
2023-01-09T21:47:03.608Z,13.45
2023-01-09T21:49:35.055Z,13.50
2023-01-09T21:52:04.843Z,13.53
2023-01-09T21:54:33.202Z,13.56
2023-01-09T21:57:04.200Z,13.59
2023-01-09T21:59:32.618Z,13.61
2023-01-09T22:02:01.941Z,13.56
2023-01-09T22:04:30.666Z,13.60
2023-01-09T22:07:01.391Z,13.67
2023-01-09T22:09:29.270Z,13.72
2023-01-09T22:11:57.709Z,13.78
2023-01-09T22:14:26.392Z,13.84
2023-01-09T22:16:54.478Z,13.90
2023-01-09T22:19:24.052Z,13.94
2023-01-09T22:21:52.220Z,13.97
2023-01-09T22:24:21.844Z,14.01
2023-01-09T22:26:52.546Z,14.04
2023-01-09T22:29:21.826Z,14.05
2023-01-09T22:31:52.615Z,14.05
2023-01-09T22:34:23.494Z,14.07
2023-01-09T22:36:53.086Z,14.07
2023-01-09T22:39:21.418Z,14.06
2023-01-09T22:41:56.926Z,14.03
2023-01-09T22:44:24.821Z,14.00
2023-01-09T22:46:52.783Z,13.98
2023-01-09T22:49:20.957Z,13.95
2023-01-09T22:51:48.939Z,13.91
2023-01-09T22:54:19.556Z,13.90
2023-01-09T22:56:47.492Z,13.87
2023-01-09T22:59:15.640Z,13.84
2023-01-09T23:01:43.945Z,13.81
2023-01-09T23:04:13.244Z,13.77
2023-01-09T23:06:46.102Z,13.75
2023-01-09T23:09:18.435Z,13.73
2023-01-09T23:12:08.712Z,13.75
2023-01-09T23:14:38.596Z,13.69
2023-01-09T23:17:08.701Z,13.67
2023-01-09T23:19:37.310Z,13.68
2023-01-09T23:22:06.021Z,13.70
2023-01-09T23:24:35.600Z,13.69
2023-01-09T23:27:06.843Z,13.69
2023-01-09T23:29:38.674Z,13.71
2023-01-09T23:32:08.014Z,13.66
2023-01-09T23:34:36.216Z,13.64
2023-01-09T23:37:08.940Z,13.57
2023-01-09T23:39:38.743Z,13.56
2023-01-09T23:42:24.095Z,13.54
2023-01-09T23:44:52.061Z,13.47
2023-01-09T23:47:31.313Z,13.44
2023-01-09T23:50:01.236Z,13.38
2023-01-09T23:52:29.201Z,13.31
2023-01-09T23:54:58.767Z,13.30
2023-01-09T23:57:26.716Z,13.27
2023-01-09T23:59:54.825Z,13.26
